sensor_id;sensor_type;location;lat;lon;timestamp;pressure;altitude;pressure_sealevel;temperature;humidity
33859;BME280;20156;47.486;12.074;2023-04-09T00:00:31;93575.06;;;4.25;100.00
33859;BME280;20156;47.486;12.074;2023-04-09T00:02:56;93576.84;;;4.18;100.00
33859;BME280;20156;47.486;12.074;2023-04-09T00:05:22;93564.19;;;4.23;100.00
33859;BME280;20156;47.486;12.074;2023-04-09T00:07:47;93556.47;;;4.23;100.00
33859;BME280;20156;47.486;12.074;2023-04-09T00:10:12;93556.03;;;4.26;100.00
33859;BME280;20156;47.486;12.074;2023-04-09T00:12:38;93554.06;;;4.28;100.00
33859;BME280;20156;47.486;12.074;2023-04-09T00:15:04;93547.06;;;4.35;100.00
33859;BME280;20156;47.486;12.074;2023-04-09T00:17:29;93558.56;;;4.33;100.00
33859;BME280;20156;47.486;12.074;2023-04-09T00:19:55;93568.66;;;4.34;100.00
33859;BME280;20156;47.486;12.074;2023-04-09T00:22:20;93564.31;;;4.35;100.00
33859;BME280;20156;47.486;12.074;2023-04-09T00:24:46;93571.50;;;4.26;100.00
33859;BME280;20156;47.486;12.074;2023-04-09T00:27:11;93585.78;;;4.15;100.00
33859;BME280;20156;47.486;12.074;2023-04-09T00:29:36;93583.41;;;4.14;100.00
33859;BME280;20156;47.486;12.074;2023-04-09T00:32:02;93588.56;;;4.14;100.00
33859;BME280;20156;47.486;12.074;2023-04-09T00:34:27;93586.16;;;4.19;100.00
33859;BME280;20156;47.486;12.074;2023-04-09T00:36:52;93576.66;;;4.19;100.00
33859;BME280;20156;47.486;12.074;2023-04-09T00:39:18;93573.47;;;4.24;100.00
33859;BME280;20156;47.486;12.074;2023-04-09T00:41:43;93577.47;;;4.20;100.00
33859;BME280;20156;47.486;12.074;2023-04-09T00:44:09;93570.31;;;4.22;100.00
33859;BME280;20156;47.486;12.074;2023-04-09T00:46:34;93551.28;;;4.30;100.00
33859;BME280;20156;47.486;12.074;2023-04-09T00:49:00;93540.94;;;4.36;100.00
33859;BME280;20156;47.486;12.074;2023-04-09T00:51:25;93543.31;;;4.38;100.00
33859;BME280;20156;47.486;12.074;2023-04-09T00:53:51;93532.81;;;4.39;100.00
33859;BME280;20156;47.486;12.074;2023-04-09T00:56:17;93522.31;;;4.41;100.00
33859;BME280;20156;47.486;12.074;2023-04-09T00:58:43;93533.63;;;4.33;100.00
33859;BME280;20156;47.486;12.074;2023-04-09T01:01:09;93520.16;;;4.38;100.00
33859;BME280;20156;47.486;12.074;2023-04-09T01:03:35;93530.06;;;4.34;100.00
33859;BME280;20156;47.486;12.074;2023-04-09T01:06:44;93538.19;;;4.31;100.00
33859;BME280;20156;47.486;12.074;2023-04-09T01:09:36;93546.91;;;4.37;100.00
33859;BME280;20156;47.486;12.074;2023-04-09T01:15:02;93557.16;;;4.43;100.00
33859;BME280;20156;47.486;12.074;2023-04-09T01:17:37;93564.25;;;4.48;100.00
33859;BME280;20156;47.486;12.074;2023-04-09T01:20:17;93577.94;;;4.42;100.00
33859;BME280;20156;47.486;12.074;2023-04-09T01:22:48;93607.25;;;4.41;100.00
33859;BME280;20156;47.486;12.074;2023-04-09T01:30:32;93617.13;;;4.44;100.00
33859;BME280;20156;47.486;12.074;2023-04-09T01:32:59;93618.50;;;4.46;100.00
33859;BME280;20156;47.486;12.074;2023-04-09T01:35:25;93622.88;;;4.46;100.00
33859;BME280;20156;47.486;12.074;2023-04-09T01:37:53;93621.50;;;4.43;100.00
33859;BME280;20156;47.486;12.074;2023-04-09T01:40:19;93621.50;;;4.43;100.00
33859;BME280;20156;47.486;12.074;2023-04-09T01:42:45;93607.19;;;4.54;100.00
33859;BME280;20156;47.486;12.074;2023-04-09T01:45:13;93627.00;;;4.53;100.00
33859;BME280;20156;47.486;12.074;2023-04-09T01:47:40;93636.69;;;4.58;100.00
33859;BME280;20156;47.486;12.074;2023-04-09T01:50:06;93659.06;;;4.58;100.00
33859;BME280;20156;47.486;12.074;2023-04-09T01:52:32;93682.44;;;4.49;100.00
33859;BME280;20156;47.486;12.074;2023-04-09T01:54:57;93695.72;;;4.46;100.00
33859;BME280;20156;47.486;12.074;2023-04-09T01:57:23;93686.22;;;4.53;100.00
33859;BME280;20156;47.486;12.074;2023-04-09T01:59:48;93700.84;;;4.53;100.00
33859;BME280;20156;47.486;12.074;2023-04-09T02:02:21;93713.91;;;4.58;100.00
33859;BME280;20156;47.486;12.074;2023-04-09T02:04:52;93739.88;;;4.57;100.00
33859;BME280;20156;47.486;12.074;2023-04-09T02:07:37;93752.94;;;4.55;100.00
33859;BME280;20156;47.486;12.074;2023-04-09T02:10:04;93772.75;;;4.55;100.00
33859;BME280;20156;47.486;12.074;2023-04-09T02:12:32;93791.16;;;4.51;100.00
33859;BME280;20156;47.486;12.074;2023-04-09T02:15:00;93789.56;;;4.50;100.00
33859;BME280;20156;47.486;12.074;2023-04-09T02:17:26;93795.31;;;4.52;100.00
33859;BME280;20156;47.486;12.074;2023-04-09T02:19:52;93791.16;;;4.51;100.00
33859;BME280;20156;47.486;12.074;2023-04-09T02:22:17;93799.88;;;4.50;100.00
33859;BME280;20156;47.486;12.074;2023-04-09T02:24:43;93805.03;;;4.44;100.00
33859;BME280;20156;47.486;12.074;2023-04-09T02:27:10;93789.00;;;4.48;100.00
33859;BME280;20156;47.486;12.074;2023-04-09T02:29:35;93778.28;;;4.51;100.00
33859;BME280;20156;47.486;12.074;2023-04-09T02:32:01;93774.91;;;4.51;100.00
33859;BME280;20156;47.486;12.074;2023-04-09T02:34:26;93769.38;;;4.54;100.00
33859;BME280;20156;47.486;12.074;2023-04-09T02:36:52;93766.63;;;4.49;100.00
33859;BME280;20156;47.486;12.074;2023-04-09T02:39:17;93766.25;;;4.39;100.00
33859;BME280;20156;47.486;12.074;2023-04-09T02:41:44;93755.56;;;4.42;100.00
33859;BME280;20156;47.486;12.074;2023-04-09T02:44:10;93753.94;;;4.47;100.00
33859;BME280;20156;47.486;12.074;2023-04-09T02:46:37;93742.44;;;4.50;100.00
33859;BME280;20156;47.486;12.074;2023-04-09T02:49:03;93736.53;;;4.43;100.00
33859;BME280;20156;47.486;12.074;2023-04-09T02:51:28;93719.50;;;4.42;100.00
33859;BME280;20156;47.486;12.074;2023-04-09T02:53:54;93705.84;;;4.41;100.00
33859;BME280;20156;47.486;12.074;2023-04-09T02:56:19;93689.19;;;4.50;100.00
33859;BME280;20156;47.486;12.074;2023-04-09T02:58:45;93677.72;;;4.46;100.00
33859;BME280;20156;47.486;12.074;2023-04-09T03:01:10;93674.19;;;4.41;100.00
33859;BME280;20156;47.486;12.074;2023-04-09T03:03:36;93665.66;;;4.40;100.00
33859;BME280;20156;47.486;12.074;2023-04-09T03:06:03;93658.69;;;4.47;100.00
33859;BME280;20156;47.486;12.074;2023-04-09T03:08:28;93648.41;;;4.47;100.00
33859;BME280;20156;47.486;12.074;2023-04-09T03:10:54;93649.03;;;4.43;100.00
33859;BME280;20156;47.486;12.074;2023-04-09T03:13:19;93625.22;;;4.47;100.00
33859;BME280;20156;47.486;12.074;2023-04-09T03:15:45;93602.44;;;4.51;100.00
33859;BME280;20156;47.486;12.074;2023-04-09T03:18:10;93607.41;;;4.46;100.00
33859;BME280;20156;47.486;12.074;2023-04-09T03:20:39;93619.09;;;4.48;100.00
33859;BME280;20156;47.486;12.074;2023-04-09T03:23:04;93641.72;;;4.40;100.00
33859;BME280;20156;47.486;12.074;2023-04-09T03:25:29;93667.88;;;4.37;100.00
33859;BME280;20156;47.486;12.074;2023-04-09T03:27:55;93681.09;;;4.40;100.00
33859;BME280;20156;47.486;12.074;2023-04-09T03:30:20;93708.84;;;4.38;100.00
33859;BME280;20156;47.486;12.074;2023-04-09T03:32:45;93731.00;;;4.39;100.00
33859;BME280;20156;47.486;12.074;2023-04-09T03:35:11;93761.88;;;4.33;100.00
33859;BME280;20156;47.486;12.074;2023-04-09T03:37:36;93779.31;;;4.37;100.00
33859;BME280;20156;47.486;12.074;2023-04-09T03:40:02;93805.66;;;4.39;100.00
33859;BME280;20156;47.486;12.074;2023-04-09T03:42:28;93838.69;;;4.36;100.00
33859;BME280;20156;47.486;12.074;2023-04-09T03:44:53;93851.19;;;4.45;100.00
33859;BME280;20156;47.486;12.074;2023-04-09T03:47:19;93870.78;;;4.46;100.00
33859;BME280;20156;47.486;12.074;2023-04-09T03:49:44;93895.16;;;4.37;100.00
33859;BME280;20156;47.486;12.074;2023-04-09T03:52:10;93928.00;;;4.29;100.00
33859;BME280;20156;47.486;12.074;2023-04-09T03:54:35;93942.66;;;4.28;100.00
33859;BME280;20156;47.486;12.074;2023-04-09T03:57:00;93960.66;;;4.28;100.00
33859;BME280;20156;47.486;12.074;2023-04-09T03:59:27;93977.88;;;4.21;100.00
33859;BME280;20156;47.486;12.074;2023-04-09T04:01:53;93994.53;;;4.25;100.00
33859;BME280;20156;47.486;12.074;2023-04-09T04:04:18;93999.28;;;4.28;100.00
33859;BME280;20156;47.486;12.074;2023-04-09T04:06:43;94023.03;;;4.23;100.00
33859;BME280;20156;47.486;12.074;2023-04-09T04:09:09;94032.31;;;4.25;100.00
33859;BME280;20156;47.486;12.074;2023-04-09T04:11:34;94040.63;;;4.20;100.00
33859;BME280;20156;47.486;12.074;2023-04-09T04:14:00;94059.25;;;4.22;100.00
33859;BME280;20156;47.486;12.074;2023-04-09T04:16:25;94098.69;;;3.95;100.00
33859;BME280;20156;47.486;12.074;2023-04-09T04:18:51;94092.22;;;4.05;100.00
33859;BME280;20156;47.486;12.074;2023-04-09T04:21:16;94088.09;;;4.11;100.00
33859;BME280;20156;47.486;12.074;2023-04-09T04:23:41;94095.63;;;4.12;100.00
33859;BME280;20156;47.486;12.074;2023-04-09T04:26:10;94088.91;;;4.18;100.00
33859;BME280;20156;47.486;12.074;2023-04-09T04:28:37;94089.94;;;4.23;100.00
33859;BME280;20156;47.486;12.074;2023-04-09T04:31:07;94074.09;;;4.27;100.00
33859;BME280;20156;47.486;12.074;2023-04-09T04:33:33;94072.91;;;4.22;100.00
33859;BME280;20156;47.486;12.074;2023-04-09T04:36:09;94073.28;;;4.19;100.00
33859;BME280;20156;47.486;12.074;2023-04-09T04:38:36;94059.84;;;4.24;100.00
33859;BME280;20156;47.486;12.074;2023-04-09T04:41:02;94038.06;;;4.27;100.00
33859;BME280;20156;47.486;12.074;2023-04-09T04:43:28;94022.63;;;4.20;100.00
33859;BME280;20156;47.486;12.074;2023-04-09T04:45:54;93999.06;;;4.23;100.00
33859;BME280;20156;47.486;12.074;2023-04-09T04:48:20;93990.91;;;4.19;100.00
33859;BME280;20156;47.486;12.074;2023-04-09T04:50:45;93983.63;;;4.23;100.00
33859;BME280;20156;47.486;12.074;2023-04-09T04:53:11;93963.63;;;4.25;100.00
33859;BME280;20156;47.486;12.074;2023-04-09T04:55:37;93964.22;;;4.20;100.00
33859;BME280;20156;47.486;12.074;2023-04-09T04:58:04;93957.31;;;4.21;100.00
33859;BME280;20156;47.486;12.074;2023-04-09T05:00:29;93952.94;;;4.21;100.00
33859;BME280;20156;47.486;12.074;2023-04-09T05:02:55;93931.59;;;4.41;100.00
33859;BME280;20156;47.486;12.074;2023-04-09T05:05:20;93955.31;;;4.30;100.00
33859;BME280;20156;47.486;12.074;2023-04-09T05:07:46;93958.09;;;4.35;100.00
33859;BME280;20156;47.486;12.074;2023-04-09T05:10:11;93984.44;;;4.30;100.00
33859;BME280;20156;47.486;12.074;2023-04-09T05:12:36;93989.78;;;4.35;100.00
33859;BME280;20156;47.486;12.074;2023-04-09T05:15:02;93991.34;;;4.36;100.00
33859;BME280;20156;47.486;12.074;2023-04-09T05:17:27;94002.47;;;4.43;100.00
33859;BME280;20156;47.486;12.074;2023-04-09T05:19:53;94025.84;;;4.42;100.00
33859;BME280;20156;47.486;12.074;2023-04-09T05:22:19;94050.38;;;4.38;100.00
33859;BME280;20156;47.486;12.074;2023-04-09T05:24:44;94059.50;;;4.40;100.00
33859;BME280;20156;47.486;12.074;2023-04-09T05:27:10;94074.94;;;4.47;100.00
33859;BME280;20156;47.486;12.074;2023-04-09T05:29:35;94094.94;;;4.45;100.00
33859;BME280;20156;47.486;12.074;2023-04-09T05:32:01;94101.69;;;4.52;100.00
33859;BME280;20156;47.486;12.074;2023-04-09T05:34:26;94111.59;;;4.49;100.00
33859;BME280;20156;47.486;12.074;2023-04-09T05:36:52;94134.75;;;4.42;100.00
33859;BME280;20156;47.486;12.074;2023-04-09T05:39:18;94166.06;;;4.46;100.00
33859;BME280;20156;47.486;12.074;2023-04-09T05:41:43;94189.25;;;4.52;100.00
33859;BME280;20156;47.486;12.074;2023-04-09T05:44:10;94209.47;;;4.56;100.00
33859;BME280;20156;47.486;12.074;2023-04-09T05:46:36;94224.13;;;4.55;100.00
33859;BME280;20156;47.486;12.074;2023-04-09T05:49:01;94199.22;;;4.69;100.00
33859;BME280;20156;47.486;12.074;2023-04-09T05:51:27;94189.56;;;4.77;100.00
33859;BME280;20156;47.486;12.074;2023-04-09T05:53:52;94198.06;;;4.78;100.00
33859;BME280;20156;47.486;12.074;2023-04-09T05:56:18;94213.91;;;4.75;100.00
33859;BME280;20156;47.486;12.074;2023-04-09T05:58:43;94229.56;;;4.73;100.00
33859;BME280;20156;47.486;12.074;2023-04-09T06:01:09;94256.91;;;4.74;100.00
33859;BME280;20156;47.486;12.074;2023-04-09T06:03:34;94283.41;;;4.68;100.00
33859;BME280;20156;47.486;12.074;2023-04-09T06:06:00;94283.28;;;4.83;100.00
33859;BME280;20156;47.486;12.074;2023-04-09T06:08:25;94304.31;;;4.87;100.00
33859;BME280;20156;47.486;12.074;2023-04-09T06:10:51;94349.66;;;4.81;100.00
33859;BME280;20156;47.486;12.074;2023-04-09T06:13:16;94368.41;;;4.96;100.00
33859;BME280;20156;47.486;12.074;2023-04-09T06:15:41;94397.69;;;4.89;100.00
33859;BME280;20156;47.486;12.074;2023-04-09T06:18:07;94434.66;;;4.74;100.00
33859;BME280;20156;47.486;12.074;2023-04-09T06:20:32;94456.78;;;4.69;100.00
33859;BME280;20156;47.486;12.074;2023-04-09T06:22:58;94459.03;;;4.78;100.00
33859;BME280;20156;47.486;12.074;2023-04-09T06:25:23;94482.59;;;4.75;100.00
33859;BME280;20156;47.486;12.074;2023-04-09T06:27:48;94515.31;;;4.53;100.00
33859;BME280;20156;47.486;12.074;2023-04-09T06:30:14;94515.97;;;4.62;100.00
33859;BME280;20156;47.486;12.074;2023-04-09T06:32:39;94499.28;;;4.58;100.00
33859;BME280;20156;47.486;12.074;2023-04-09T06:35:05;94503.13;;;4.47;100.00
33859;BME280;20156;47.486;12.074;2023-04-09T06:37:32;94515.22;;;4.47;100.00
33859;BME280;20156;47.486;12.074;2023-04-09T06:39:58;94507.13;;;4.50;100.00
33859;BME280;20156;47.486;12.074;2023-04-09T06:42:23;94483.78;;;4.73;100.00
33859;BME280;20156;47.486;12.074;2023-04-09T06:44:49;94473.63;;;4.93;100.00
33859;BME280;20156;47.486;12.074;2023-04-09T06:47:14;94475.31;;;5.07;100.00
33859;BME280;20156;47.486;12.074;2023-04-09T06:49:40;94508.72;;;4.94;100.00
33859;BME280;20156;47.486;12.074;2023-04-09T06:52:05;94526.25;;;4.83;100.00
33859;BME280;20156;47.486;12.074;2023-04-09T06:54:31;94517.16;;;5.09;100.00
33859;BME280;20156;47.486;12.074;2023-04-09T06:56:57;94522.63;;;5.21;100.00
33859;BME280;20156;47.486;12.074;2023-04-09T06:59:22;94541.13;;;5.31;100.00
33859;BME280;20156;47.486;12.074;2023-04-09T07:01:47;94564.13;;;5.32;100.00
33859;BME280;20156;47.486;12.074;2023-04-09T07:04:13;94604.78;;;5.30;100.00
33859;BME280;20156;47.486;12.074;2023-04-09T07:06:38;94652.84;;;5.17;100.00
33859;BME280;20156;47.486;12.074;2023-04-09T07:09:04;94665.31;;;5.34;100.00
33859;BME280;20156;47.486;12.074;2023-04-09T07:11:31;94694.34;;;5.22;100.00
33859;BME280;20156;47.486;12.074;2023-04-09T07:13:57;94705.84;;;5.40;100.00
33859;BME280;20156;47.486;12.074;2023-04-09T07:16:22;94706.63;;;5.62;100.00
33859;BME280;20156;47.486;12.074;2023-04-09T07:18:48;94742.81;;;5.48;100.00
33859;BME280;20156;47.486;12.074;2023-04-09T07:21:13;94767.38;;;5.65;100.00
33859;BME280;20156;47.486;12.074;2023-04-09T07:23:38;94780.53;;;5.70;100.00
33859;BME280;20156;47.486;12.074;2023-04-09T07:26:04;94787.22;;;5.86;100.00
33859;BME280;20156;47.486;12.074;2023-04-09T07:28:30;94804.41;;;5.93;100.00
33859;BME280;20156;47.486;12.074;2023-04-09T07:30:56;94842.84;;;5.88;100.00
33859;BME280;20156;47.486;12.074;2023-04-09T07:33:21;94840.19;;;5.96;100.00
33859;BME280;20156;47.486;12.074;2023-04-09T07:35:47;94848.66;;;6.12;100.00
33859;BME280;20156;47.486;12.074;2023-04-09T07:38:12;94856.59;;;6.31;100.00
33859;BME280;20156;47.486;12.074;2023-04-09T07:40:37;94853.09;;;6.39;100.00
33859;BME280;20156;47.486;12.074;2023-04-09T07:43:03;94912.50;;;6.03;100.00
33859;BME280;20156;47.486;12.074;2023-04-09T07:45:29;94926.25;;;5.89;100.00
33859;BME280;20156;47.486;12.074;2023-04-09T07:47:54;94921.97;;;5.81;100.00
33859;BME280;20156;47.486;12.074;2023-04-09T07:50:20;94898.28;;;6.07;100.00
33859;BME280;20156;47.486;12.074;2023-04-09T07:52:45;94888.28;;;6.40;100.00
33859;BME280;20156;47.486;12.074;2023-04-09T07:55:11;94933.47;;;6.29;100.00
33859;BME280;20156;47.486;12.074;2023-04-09T07:57:36;94972.06;;;6.38;100.00
33859;BME280;20156;47.486;12.074;2023-04-09T08:00:03;94967.47;;;6.97;100.00
33859;BME280;20156;47.486;12.074;2023-04-09T08:02:28;95026.69;;;6.71;100.00
33859;BME280;20156;47.486;12.074;2023-04-09T08:04:55;95001.81;;;7.40;100.00
33859;BME280;20156;47.486;12.074;2023-04-09T08:07:20;95077.31;;;7.22;100.00
33859;BME280;20156;47.486;12.074;2023-04-09T08:09:46;95143.06;;;7.13;100.00
33859;BME280;20156;47.486;12.074;2023-04-09T08:12:11;95247.09;;;6.94;100.00
33859;BME280;20156;47.486;12.074;2023-04-09T08:14:36;95243.34;;;7.47;100.00
33859;BME280;20156;47.486;12.074;2023-04-09T08:17:02;95286.16;;;8.07;100.00
33859;BME280;20156;47.486;12.074;2023-04-09T08:19:28;95448.47;;;8.00;100.00
33859;BME280;20156;47.486;12.074;2023-04-09T08:21:53;95505.88;;;8.19;100.00
33859;BME280;20156;47.486;12.074;2023-04-09T08:24:19;95561.41;;;8.24;100.00
33859;BME280;20156;47.486;12.074;2023-04-09T08:26:45;95591.00;;;8.81;100.00
33859;BME280;20156;47.486;12.074;2023-04-09T08:29:11;95719.44;;;7.64;100.00
33859;BME280;20156;47.486;12.074;2023-04-09T08:31:37;95710.88;;;7.63;100.00
33859;BME280;20156;47.486;12.074;2023-04-09T08:34:03;95735.84;;;7.56;100.00
33859;BME280;20156;47.486;12.074;2023-04-09T08:36:29;95764.22;;;7.72;100.00
33859;BME280;20156;47.486;12.074;2023-04-09T08:38:55;95798.72;;;7.96;100.00
33859;BME280;20156;47.486;12.074;2023-04-09T08:41:22;95853.19;;;8.10;100.00
33859;BME280;20156;47.486;12.074;2023-04-09T08:43:49;95871.97;;;8.81;100.00
33859;BME280;20156;47.486;12.074;2023-04-09T08:46:17;95887.25;;;9.28;100.00
33859;BME280;20156;47.486;12.074;2023-04-09T08:48:48;95896.56;;;9.52;100.00
33859;BME280;20156;47.486;12.074;2023-04-09T08:51:18;95905.78;;;9.11;100.00
33859;BME280;20156;47.486;12.074;2023-04-09T08:53:48;95898.28;;;9.75;100.00
33859;BME280;20156;47.486;12.074;2023-04-09T08:56:17;95938.97;;;9.15;100.00
33859;BME280;20156;47.486;12.074;2023-04-09T08:58:44;95946.53;;;8.56;100.00
33859;BME280;20156;47.486;12.074;2023-04-09T09:01:40;95944.38;;;9.28;100.00
33859;BME280;20156;47.486;12.074;2023-04-09T09:04:08;95939.59;;;9.17;100.00
33859;BME280;20156;47.486;12.074;2023-04-09T09:06:37;95936.69;;;9.35;100.00
33859;BME280;20156;47.486;12.074;2023-04-09T09:09:06;95936.00;;;10.36;100.00
33859;BME280;20156;47.486;12.074;2023-04-09T09:14:19;95950.78;;;11.14;100.00
33859;BME280;20156;47.486;12.074;2023-04-09T09:21:55;95980.78;;;10.02;100.00
33859;BME280;20156;47.486;12.074;2023-04-09T09:24:21;95966.84;;;11.18;100.00
33859;BME280;20156;47.486;12.074;2023-04-09T09:26:46;95979.03;;;11.95;100.00
33859;BME280;20156;47.486;12.074;2023-04-09T09:29:12;95987.78;;;12.22;100.00
33859;BME280;20156;47.486;12.074;2023-04-09T09:31:48;95980.91;;;11.52;100.00
33859;BME280;20156;47.486;12.074;2023-04-09T09:34:18;95979.97;;;10.89;100.00
33859;BME280;20156;47.486;12.074;2023-04-09T09:36:45;95965.78;;;11.12;100.00
33859;BME280;20156;47.486;12.074;2023-04-09T09:39:11;95972.66;;;11.20;100.00
33859;BME280;20156;47.486;12.074;2023-04-09T09:41:38;95975.09;;;11.78;100.00
33859;BME280;20156;47.486;12.074;2023-04-09T09:44:09;95967.34;;;11.91;100.00
33859;BME280;20156;47.486;12.074;2023-04-09T09:46:37;95955.50;;;11.88;100.00
33859;BME280;20156;47.486;12.074;2023-04-09T09:49:04;95948.53;;;11.61;100.00
33859;BME280;20156;47.486;12.074;2023-04-09T09:51:31;95959.03;;;12.09;100.00
33859;BME280;20156;47.486;12.074;2023-04-09T09:53:58;95914.69;;;11.74;100.00
33859;BME280;20156;47.486;12.074;2023-04-09T09:56:30;95876.09;;;11.22;100.00
33859;BME280;20156;47.486;12.074;2023-04-09T10:01:31;95895.28;;;10.43;100.00
33859;BME280;20156;47.486;12.074;2023-04-09T10:03:59;95913.75;;;9.98;100.00
33859;BME280;20156;47.486;12.074;2023-04-09T10:06:26;95940.44;;;10.21;100.00
33859;BME280;20156;47.486;12.074;2023-04-09T10:08:55;95943.53;;;10.46;100.00
33859;BME280;20156;47.486;12.074;2023-04-09T10:11:22;95918.75;;;10.14;100.00
33859;BME280;20156;47.486;12.074;2023-04-09T10:13:50;95910.22;;;10.77;100.00
33859;BME280;20156;47.486;12.074;2023-04-09T10:16:17;95875.16;;;10.52;100.00
33859;BME280;20156;47.486;12.074;2023-04-09T10:18:43;95870.56;;;9.97;100.00
33859;BME280;20156;47.486;12.074;2023-04-09T10:21:31;95824.88;;;9.73;100.00
33859;BME280;20156;47.486;12.074;2023-04-09T10:23:59;95834.50;;;10.08;100.00
33859;BME280;20156;47.486;12.074;2023-04-09T10:26:35;95836.22;;;9.50;100.00
33859;BME280;20156;47.486;12.074;2023-04-09T10:29:08;95899.88;;;9.31;100.00
33859;BME280;20156;47.486;12.074;2023-04-09T10:32:05;95934.81;;;9.73;100.00
33859;BME280;20156;47.486;12.074;2023-04-09T10:34:36;95922.75;;;10.16;100.00
33859;BME280;20156;47.486;12.074;2023-04-09T10:37:02;95924.25;;;10.40;100.00
33859;BME280;20156;47.486;12.074;2023-04-09T10:39:31;95915.94;;;10.30;100.00
33859;BME280;20156;47.486;12.074;2023-04-09T10:42:02;95881.22;;;10.38;100.00
33859;BME280;20156;47.486;12.074;2023-04-09T10:44:31;95864.25;;;10.91;100.00
33859;BME280;20156;47.486;12.074;2023-04-09T10:46:57;95881.06;;;10.89;100.00
33859;BME280;20156;47.486;12.074;2023-04-09T10:49:24;95884.59;;;11.02;100.00
33859;BME280;20156;47.486;12.074;2023-04-09T10:52:10;95871.19;;;11.05;100.00
33859;BME280;20156;47.486;12.074;2023-04-09T10:54:39;95878.88;;;11.83;100.00
33859;BME280;20156;47.486;12.074;2023-04-09T10:59:41;95830.50;;;12.74;100.00
33859;BME280;20156;47.486;12.074;2023-04-09T11:05:19;95786.88;;;12.02;100.00
33859;BME280;20156;47.486;12.074;2023-04-09T11:08:18;95771.88;;;12.24;100.00
33859;BME280;20156;47.486;12.074;2023-04-09T11:10:44;95695.94;;;11.66;100.00
33859;BME280;20156;47.486;12.074;2023-04-09T11:13:16;95676.34;;;11.77;100.00
33859;BME280;20156;47.486;12.074;2023-04-09T11:15:44;95697.56;;;10.71;100.00
33859;BME280;20156;47.486;12.074;2023-04-09T11:18:29;95709.44;;;10.80;100.00
33859;BME280;20156;47.486;12.074;2023-04-09T11:20:55;95698.88;;;10.54;100.00
33859;BME280;20156;47.486;12.074;2023-04-09T11:23:22;95727.72;;;10.10;100.00
33859;BME280;20156;47.486;12.074;2023-04-09T11:25:49;95739.88;;;10.52;100.00
33859;BME280;20156;47.486;12.074;2023-04-09T11:28:15;95726.25;;;10.50;100.00
33859;BME280;20156;47.486;12.074;2023-04-09T11:30:41;95712.63;;;10.76;100.00
33859;BME280;20156;47.486;12.074;2023-04-09T11:33:08;95666.81;;;11.36;100.00
33859;BME280;20156;47.486;12.074;2023-04-09T11:35:33;95617.78;;;10.85;100.00
33859;BME280;20156;47.486;12.074;2023-04-09T11:38:04;95606.72;;;11.44;100.00
33859;BME280;20156;47.486;12.074;2023-04-09T11:40:30;95600.94;;;10.81;100.00
33859;BME280;20156;47.486;12.074;2023-04-09T11:42:55;95668.56;;;10.40;100.00
33859;BME280;20156;47.486;12.074;2023-04-09T11:45:24;95689.75;;;10.65;100.00
33859;BME280;20156;47.486;12.074;2023-04-09T11:47:50;95677.66;;;10.50;100.00
33859;BME280;20156;47.486;12.074;2023-04-09T11:50:16;95694.72;;;11.55;100.00
33859;BME280;20156;47.486;12.074;2023-04-09T11:52:44;95689.19;;;11.85;100.00
33859;BME280;20156;47.486;12.074;2023-04-09T11:55:10;95648.50;;;11.97;100.00
33859;BME280;20156;47.486;12.074;2023-04-09T11:57:41;95660.31;;;12.06;100.00
33859;BME280;20156;47.486;12.074;2023-04-09T12:00:14;95625.34;;;12.60;100.00
33859;BME280;20156;47.486;12.074;2023-04-09T12:02:42;95564.75;;;12.96;100.00
33859;BME280;20156;47.486;12.074;2023-04-09T12:05:10;95523.44;;;12.80;100.00
33859;BME280;20156;47.486;12.074;2023-04-09T12:07:37;95429.59;;;13.16;100.00
33859;BME280;20156;47.486;12.074;2023-04-09T12:10:07;95376.25;;;13.49;100.00
33859;BME280;20156;47.486;12.074;2023-04-09T12:12:45;95308.38;;;13.61;100.00
33859;BME280;20156;47.486;12.074;2023-04-09T12:15:18;95280.06;;;13.39;100.00
33859;BME280;20156;47.486;12.074;2023-04-09T12:17:53;95217.41;;;13.14;100.00
33859;BME280;20156;47.486;12.074;2023-04-09T12:20:29;95198.88;;;12.18;100.00
33859;BME280;20156;47.486;12.074;2023-04-09T12:22:55;95133.34;;;12.32;100.00
33859;BME280;20156;47.486;12.074;2023-04-09T12:25:20;95127.22;;;12.45;100.00
33859;BME280;20156;47.486;12.074;2023-04-09T12:27:46;95019.19;;;12.64;100.00
33859;BME280;20156;47.486;12.074;2023-04-09T12:30:11;94999.22;;;13.00;100.00
33859;BME280;20156;47.486;12.074;2023-04-09T12:32:37;94959.03;;;13.01;100.00
33859;BME280;20156;47.486;12.074;2023-04-09T12:35:03;94916.91;;;12.44;100.00
33859;BME280;20156;47.486;12.074;2023-04-09T12:37:29;94857.31;;;12.29;100.00
33859;BME280;20156;47.486;12.074;2023-04-09T12:39:54;94816.75;;;12.45;100.00
33859;BME280;20156;47.486;12.074;2023-04-09T12:42:20;94766.03;;;13.00;100.00
33859;BME280;20156;47.486;12.074;2023-04-09T12:44:46;94735.63;;;12.47;100.00
33859;BME280;20156;47.486;12.074;2023-04-09T12:47:11;94678.44;;;12.22;100.00
33859;BME280;20156;47.486;12.074;2023-04-09T12:49:37;94683.38;;;11.77;100.00
33859;BME280;20156;47.486;12.074;2023-04-09T12:52:03;94675.63;;;11.70;100.00
33859;BME280;20156;47.486;12.074;2023-04-09T12:54:28;94659.97;;;11.58;100.00
33859;BME280;20156;47.486;12.074;2023-04-09T12:56:53;94667.06;;;11.39;100.00
33859;BME280;20156;47.486;12.074;2023-04-09T12:59:19;94669.34;;;11.48;100.00
33859;BME280;20156;47.486;12.074;2023-04-09T13:01:44;94664.41;;;11.69;100.00
33859;BME280;20156;47.486;12.074;2023-04-09T13:04:10;94668.34;;;11.49;100.00
33859;BME280;20156;47.486;12.074;2023-04-09T13:06:36;94654.97;;;11.57;100.00
33859;BME280;20156;47.486;12.074;2023-04-09T13:09:01;94663.72;;;11.62;100.00
33859;BME280;20156;47.486;12.074;2023-04-09T13:11:27;94690.69;;;11.26;100.00